Nasdaq 100

WKN: A0AE1X / ISIN: US6311011026


Kursliste
Name
Letzter EUR
Änd.
  Vortag EUR Zeit
Vol.
Adobe 509,23 -0,16% 509,49 20:32 168 M
Airbnb Inc. 142,03 +1,24% 140,13 20:32 133 M
Alphabet A 125,16 -2,37% 128,06 20:32 763 M
Alphabet C 126,28 -2,35% 129,17 20:32 779 M
Amazon 160,03 -0,07% 159,97 20:32 611 M
AMD Advanced Micro Devices Inc 162,73 -0,95% 164,11 20:32 674 M
American Electric Power 76,58 -1,30% 77,50 20:32 69,9 M
Amgen Inc. 257,02 -0,01% 256,76 20:32 108 M
Analog Devices 173,37 -0,62% 174,27 20:32 48,5 M
Ansys 308,00 -0,52% 309,27 20:25 20,5 M
Apple 166,66 -1,14% 168,38 20:32 1,13 Mrd
Applied Materials Inc. 182,07 -2,76% 187,03 20:32 211 M
ASML Holding ADR 865,79 -0,37% 868,04 20:31 124 M
AstraZeneca ADR 60,19 -1,69% 61,16 20:32 63,8 M
Atlassian 192,08 +1,11% 189,76 20:32 37,1 M
Autodesk 236,21 -0,40% 236,91 20:32 61,1 M
Automatic Data Processing Inc. 231,83 -0,06% 231,71 20:32 46,9 M
Baker Hughes Corp 27,31 -0,44% 27,40 20:32 26,2 M
Biogen 205,82 -0,42% 206,47 20:32 26,5 M
Booking Holdings Inc. 3.233 +0,70% 3.207 20:25 160 M
Broadcom 1.189 -0,61% 1.195 20:23 177 M
Cadence Design Systems 277,29 +0,14% 276,61 20:32 27,6 M
CDW Corp. 225,67 +0,09% 225,21 20:30 14,7 M
Charter Communications Corp. 265,57 -0,79% 267,38 20:32 52,1 M
Cintas 580,58 +0,14% 579,15 20:32 16,3 M
Cisco Systems Inc. 44,48 -0,25% 44,54 20:32 95,1 M
Coca-Cola European Partners 64,42 -1,40% 65,26 20:32 14,9 M
Cognizant Technology Solutions Corp. 72,42 -0,86% 72,97 20:32 27,1 M
Comcast 39,02 -0,02% 38,98 20:32 63,4 M
Constellation Energy 154,53 +7,49% 143,61 20:32 171 M
Copart 48,90 +0,09% 48,80 20:32 50,9 M
Costar Group 79,71 +1,73% 78,27 20:32 17,9 M
Costco Wholesale Ltd. 691,39 +0,58% 686,62 20:30 125 M
CrowdStrike Holding 295,60 -0,24% 295,97 20:32 135 M
CSX Corp. 34,82 -0,63% 35,00 20:32 31,2 M
Datadog A 120,76 -0,08% 120,73 20:32 38,7 M
Dexcom 104,70 -1,64% 106,32 20:31 54,3 M
Diamondback Energy 165,33 +0,65% 164,09 20:31 30,3 M
Dollar Tree 134,96 -1,80% 137,28 20:32 41,2 M
DoorDash 113,54 -0,58% 114,08 20:32 35,7 M
Electronic Arts 128,93 +0,13% 128,62 20:32 44,0 M
Exelon 33,03 -1,17% 33,39 20:32 25,0 M
Fastenal 67,62 +0,14% 67,45 20:31 21,8 M
Fortinet 63,91 -1,04% 64,51 20:32 26,9 M
GE HealthCare Technologies Inc. 85,48 +0,10% 85,30 20:32 52,5 M
Gilead Sciences Inc. 67,12 -0,41% 67,32 20:32 41,8 M
GlobalFoundries 48,58 -1,63% 49,33 20:32 7,70 M
Honeywell International 182,57 -0,20% 182,74 20:32 68,3 M
IDEXX Laboratories 527,16 -0,69% 530,21 20:28 22,2 M
Illumina 129,44 +0,34% 128,86 20:32 35,6 M
Intel Corp. 38,79 -1,71% 39,42 20:32 120 M
Intuit 608,93 -1,44% 617,14 20:31 99,4 M
Seite:  Zurück  
1
2    von   2   Weiter  
RSS Feeds



Bitte warten...